Time;durP1;ratioP1;P1;durP2;ratioP2;P2;SDS_P1;SDS_P2;PMS_P1;PMS_P2;Temp;Humidity;BMP_temperature;BMP_pressure;BME280_temperature;BME280_humidity;BME280_pressure;Samples;Min_cycle;Max_cycle;Signal;HPM_P1;HPM_P2
2023/10/02 00:01:24;;;;;;;17.10;15.53;;;;;;;15.16;81.06;93463.72;5080787;28;20215;-78
2023/10/02 00:04:16;;;;;;;18.60;15.60;;;;;;;15.03;81.45;93470.47;5088312;28;20226;-79
2023/10/02 00:06:36;;;;;;;17.27;14.47;;;;;;;15.11;80.65;93461.16;5079659;28;20187;-80
2023/10/02 00:09:04;;;;;;;16.73;15.07;;;;;;;15.11;79.85;93455.91;5086888;28;20222;-78
2023/10/02 00:11:36;;;;;;;15.40;14.10;;;;;;;15.15;79.16;93457.66;5088762;28;20208;-80
2023/10/02 00:14:18;;;;;;;14.17;12.97;;;;;;;15.12;78.74;93454.81;5088419;28;20213;-81
2023/10/02 00:17:00;;;;;;;14.70;13.17;;;;;;;15.12;78.62;93458.25;5089052;28;20257;-79
2023/10/02 00:19:40;;;;;;;15.20;13.60;;;;;;;15.21;78.45;93456.53;5077891;28;20216;-79
2023/10/02 00:22:08;;;;;;;14.43;13.23;;;;;;;15.16;78.50;93461.09;5080298;28;20218;-79
2023/10/02 00:24:39;;;;;;;15.37;13.83;;;;;;;15.15;77.94;93444.53;5088969;28;20225;-77
2023/10/02 00:27:06;;;;;;;15.87;13.80;;;;;;;15.12;78.18;93465.34;5088372;28;20220;-80
2023/10/02 00:29:32;;;;;;;17.13;13.37;;;;;;;15.18;78.29;93458.94;5069849;28;20246;-81
2023/10/02 00:31:59;;;;;;;14.87;13.53;;;;;;;15.08;78.30;93453.84;5078061;28;20180;-80
2023/10/02 00:34:31;;;;;;;15.00;13.53;;;;;;;15.10;78.43;93451.69;5079878;28;20232;-80
2023/10/02 00:37:43;;;;;;;15.50;14.20;;;;;;;15.09;78.61;93437.78;5084837;28;20189;-80
2023/10/02 00:39:53;;;;;;;14.97;13.67;;;;;;;15.11;77.92;93443.53;5073307;28;20292;-81
2023/10/02 00:42:24;;;;;;;15.47;13.63;;;;;;;15.04;77.61;93434.41;5088081;28;20215;-78
2023/10/02 00:44:55;;;;;;;14.03;12.53;;;;;;;15.06;77.90;93445.44;5084023;28;20327;-80
2023/10/02 00:47:47;;;;;;;14.03;12.60;;;;;;;14.86;78.67;93443.88;5081726;28;20196;-80
2023/10/02 00:50:17;;;;;;;15.30;13.77;;;;;;;14.96;78.50;93448.22;5086599;28;20196;-79
2023/10/02 00:53:02;;;;;;;14.27;12.97;;;;;;;14.83;79.00;93441.03;5077126;28;20372;-80
2023/10/02 00:55:33;;;;;;;14.47;13.17;;;;;;;14.90;78.73;93446.72;5089243;28;20185;-80
2023/10/02 00:58:04;;;;;;;15.00;13.60;;;;;;;14.59;78.93;93414.00;5087510;28;20213;-82
2023/10/02 01:00:35;;;;;;;17.83;13.47;;;;;;;14.84;79.17;93446.00;5085266;28;20177;-80
2023/10/02 01:03:04;;;;;;;13.93;12.93;;;;;;;14.87;79.04;93445.44;5069472;28;20225;-79
2023/10/02 01:05:51;;;;;;;17.73;14.10;;;;;;;14.76;79.71;93437.97;5079835;28;20194;-78
2023/10/02 01:08:42;;;;;;;14.57;12.97;;;;;;;14.92;78.51;93436.69;5088387;28;20288;-76
2023/10/02 01:11:13;;;;;;;14.90;13.63;;;;;;;14.82;78.42;93428.97;5085747;28;20187;-80
2023/10/02 01:13:39;;;;;;;19.50;14.57;;;;;;;14.99;77.69;93437.16;5087434;28;20230;-80
2023/10/02 01:16:09;;;;;;;16.23;14.37;;;;;;;14.91;77.81;93435.91;5080881;28;20208;-79
2023/10/02 01:18:39;;;;;;;15.53;14.07;;;;;;;15.04;77.17;93431.78;5083073;28;20227;-76
2023/10/02 01:21:14;;;;;;;15.67;14.03;;;;;;;14.91;77.04;93429.91;5080204;28;20244;-79
2023/10/02 01:26:36;;;;;;;15.37;13.97;;;;;;;14.93;76.90;93433.78;5070193;28;20304;-79
2023/10/02 01:29:03;;;;;;;14.20;12.70;;;;;;;14.85;76.80;93412.63;5083204;28;20221;-80
2023/10/02 01:31:32;;;;;;;15.90;13.10;;;;;;;14.89;77.49;93434.66;5089036;28;20273;-80
2023/10/02 01:34:04;;;;;;;13.73;12.63;;;;;;;14.86;77.60;93411.56;5082889;28;20244;-80
2023/10/02 01:36:31;;;;;;;14.13;13.03;;;;;;;14.80;76.58;93412.69;5091718;28;20244;-77
2023/10/02 01:39:14;;;;;;;13.83;12.63;;;;;;;14.81;76.72;93433.44;5091170;28;20259;-81
2023/10/02 01:41:41;;;;;;;13.50;12.20;;;;;;;14.79;75.73;93429.50;5090756;28;20168;-78
2023/10/02 01:44:10;;;;;;;13.93;12.20;;;;;;;14.86;75.71;93429.97;5084368;28;20253;-79
2023/10/02 01:46:49;;;;;;;14.93;13.43;;;;;;;14.76;75.85;93436.13;5087077;28;20184;-79
2023/10/02 01:49:24;;;;;;;13.77;12.47;;;;;;;14.69;76.13;93437.56;5092032;28;20240;-78
2023/10/02 01:52:07;;;;;;;13.73;12.63;;;;;;;14.66;75.94;93430.22;5086121;28;20179;-80
2023/10/02 01:54:34;;;;;;;14.43;12.90;;;;;;;14.59;75.69;93437.66;5085430;28;20240;-78
2023/10/02 01:57:00;;;;;;;14.53;13.20;;;;;;;14.58;76.00;93441.38;5084695;28;20211;-79
2023/10/02 01:59:26;;;;;;;14.50;13.20;;;;;;;14.47;76.02;93448.59;5085396;28;20252;-79
2023/10/02 02:01:55;;;;;;;13.37;12.07;;;;;;;14.54;76.00;93450.88;5092398;28;20193;-80
2023/10/02 02:04:33;;;;;;;13.37;12.03;;;;;;;14.46;75.75;93444.38;5089132;28;20258;-80
2023/10/02 02:07:00;;;;;;;16.17;12.53;;;;;;;14.38;75.79;93439.78;5091734;28;20173;-78
2023/10/02 02:09:30;;;;;;;14.90;13.33;;;;;;;14.38;75.18;93452.91;5086445;28;20247;-78
2023/10/02 02:12:07;;;;;;;14.13;12.80;;;;;;;14.40;75.43;93456.03;5085275;28;20188;-80
2023/10/02 02:14:33;;;;;;;14.10;12.13;;;;;;;14.38;75.58;93448.44;5090744;28;20224;-78
2023/10/02 02:16:59;;;;;;;12.77;11.67;;;;;;;14.31;75.52;93450.63;5091007;28;20606;-80
2023/10/02 02:19:25;;;;;;;12.17;11.20;;;;;;;14.23;76.07;93451.22;5073712;28;20270;-79
2023/10/02 02:21:56;;;;;;;12.93;11.80;;;;;;;14.15;76.60;93457.06;5089283;28;20193;-80
2023/10/02 02:24:25;;;;;;;14.60;12.60;;;;;;;14.20;74.89;93458.84;5082182;28;20247;-79
2023/10/02 02:26:57;;;;;;;13.30;12.00;;;;;;;14.16;74.16;93445.50;5088208;28;20228;-79
2023/10/02 02:29:23;;;;;;;12.47;10.97;;;;;;;14.17;74.41;93452.31;5089933;28;20217;-80
2023/10/02 02:31:55;;;;;;;13.47;12.30;;;;;;;14.18;72.99;93453.88;5078990;28;20181;-80
2023/10/02 02:34:23;;;;;;;14.80;11.83;;;;;;;14.27;71.51;93454.84;5090723;28;20221;-79
2023/10/02 02:36:50;;;;;;;14.97;13.57;;;;;;;14.17;70.87;93452.31;5091588;28;20180;-79
2023/10/02 02:39:17;;;;;;;11.47;10.57;;;;;;;13.97;70.74;93439.41;5088332;28;20219;-80
2023/10/02 02:41:43;;;;;;;13.00;11.40;;;;;;;14.02;70.05;93446.47;5090050;28;20193;-79
2023/10/02 02:46:56;;;;;;;13.90;11.70;;;;;;;14.05;69.54;93459.03;5069608;28;20194;-79
2023/10/02 02:49:29;;;;;;;12.30;11.27;;;;;;;14.02;69.70;93452.47;5068524;28;20229;-79
2023/10/02 02:51:58;;;;;;;12.30;11.30;;;;;;;14.03;69.56;93461.94;5049726;28;20182;-80
2023/10/02 02:54:25;;;;;;;12.10;11.00;;;;;;;13.90;69.43;93464.44;5070643;28;20221;-80
2023/10/02 02:57:00;;;;;;;12.63;11.57;;;;;;;13.83;68.98;93453.47;5070251;28;20248;-91
2023/10/02 02:59:28;;;;;;;12.13;11.20;;;;;;;14.02;67.01;93460.34;5067015;28;20240;-89
2023/10/02 03:02:21;;;;;;;13.87;12.03;;;;;;;13.99;66.56;93455.66;5070986;28;20227;-88
2023/10/02 03:04:47;;;;;;;12.13;11.20;;;;;;;14.04;66.91;93452.97;5062818;28;20312;-87
2023/10/02 03:07:36;;;;;;;14.17;11.40;;;;;;;14.08;65.78;93453.22;5063904;28;20258;-86
2023/10/02 03:10:02;;;;;;;11.87;10.70;;;;;;;14.13;66.05;93453.16;5085920;28;20232;-87
2023/10/02 03:12:28;;;;;;;11.43;10.37;;;;;;;14.06;65.95;93450.06;5100700;28;20184;-88
2023/10/02 03:14:55;;;;;;;12.47;11.37;;;;;;;14.08;65.79;93448.75;5090805;28;20432;-87
2023/10/02 03:17:28;;;;;;;15.07;10.70;;;;;;;13.98;65.28;93442.81;5087982;28;20183;-86
2023/10/02 03:20:06;;;;;;;11.73;10.27;;;;;;;13.94;64.63;93447.84;5078235;28;20272;-82
2023/10/02 03:22:33;;;;;;;11.80;10.63;;;;;;;13.77;64.66;93429.13;5092488;28;20199;-86
2023/10/02 03:25:24;;;;;;;11.87;10.67;;;;;;;13.91;64.42;93451.03;5076592;28;20201;-85
2023/10/02 03:27:48;;;;;;;11.43;10.50;;;;;;;13.89;64.75;93439.22;5090269;28;20970;-88
2023/10/02 03:30:35;;;;;;;12.70;11.47;;;;;;;13.82;64.01;93429.06;5092073;28;20173;-86
2023/10/02 03:33:02;;;;;;;11.40;10.40;;;;;;;13.86;63.93;93445.81;5086960;28;20252;-87
2023/10/02 03:35:27;;;;;;;11.93;10.40;;;;;;;13.73;64.33;93428.09;5090771;28;20212;-88
2023/10/02 03:37:53;;;;;;;11.83;10.83;;;;;;;13.79;64.68;93445.34;5093423;28;20248;-87
2023/10/02 03:40:20;;;;;;;12.93;11.63;;;;;;;13.90;65.20;93446.06;5085922;28;20244;-83
2023/10/02 03:42:47;;;;;;;12.53;11.33;;;;;;;13.97;65.71;93447.28;5093195;28;20269;-83
2023/10/02 03:45:13;;;;;;;13.03;11.73;;;;;;;14.03;65.42;93459.31;5090377;28;20244;-82
2023/10/02 03:47:41;;;;;;;13.03;11.83;;;;;;;14.08;65.06;93466.34;5086863;28;20203;-82
2023/10/02 03:50:12;;;;;;;16.30;11.17;;;;;;;13.98;64.10;93455.94;5086128;28;20240;-82
2023/10/02 03:52:37;;;;;;;12.80;11.60;;;;;;;14.01;63.02;93461.41;5088211;28;20210;-85
2023/10/02 03:55:17;;;;;;;13.40;12.03;;;;;;;13.97;62.36;93463.03;5091946;28;20506;-82
2023/10/02 03:57:55;;;;;;;13.73;12.23;;;;;;;13.95;63.30;93454.66;5085856;28;20947;-79
2023/10/02 04:00:27;;;;;;;12.33;10.77;;;;;;;13.88;62.66;93454.19;5089897;28;20189;-78
2023/10/02 04:02:56;;;;;;;13.07;11.43;;;;;;;13.87;62.81;93460.50;5076831;28;20235;-78
2023/10/02 04:10:56;;;;;;;12.23;11.07;;;;;;;13.97;61.52;93459.63;5085275;28;20195;-87
2023/10/02 04:13:48;;;;;;;11.57;10.43;;;;;;;14.04;60.83;93463.47;5087343;28;20287;-86
2023/10/02 04:16:28;;;;;;;12.40;11.17;;;;;;;14.00;60.85;93467.75;5099814;28;20193;-89
2023/10/02 04:19:01;;;;;;;10.90;10.07;;;;;;;13.97;60.98;93462.25;5087736;28;20251;-81
2023/10/02 04:21:28;;;;;;;11.10;10.10;;;;;;;14.00;60.71;93475.63;5095046;28;20199;-82
2023/10/02 04:23:54;;;;;;;16.17;11.50;;;;;;;13.99;60.88;93471.41;5091550;28;20229;-81
2023/10/02 04:26:21;;;;;;;12.97;11.07;;;;;;;14.07;61.43;93489.19;5088594;28;20221;-84
2023/10/02 04:28:59;;;;;;;11.63;10.63;;;;;;;14.00;60.71;93494.00;5075186;28;20223;-87
2023/10/02 04:31:34;;;;;;;10.50;9.60;;;;;;;14.08;61.20;93493.41;5076457;28;20232;-83
2023/10/02 04:36:44;;;;;;;14.10;10.47;;;;;;;13.88;61.70;93511.94;5080908;28;20210;-86
2023/10/02 04:42:12;;;;;;;11.90;10.90;;;;;;;14.31;62.04;93511.03;5088760;28;20185;-79
2023/10/02 04:44:48;;;;;;;12.33;10.80;;;;;;;13.99;62.45;93500.28;5078341;28;20213;-79
2023/10/02 04:47:17;;;;;;;10.93;9.90;;;;;;;13.86;62.92;93502.78;5064280;28;20176;-79
2023/10/02 04:52:55;;;;;;;10.20;9.20;;;;;;;13.84;63.17;93505.69;5074417;28;20200;-81
2023/10/02 04:58:15;;;;;;;10.60;9.50;;;;;;;13.81;63.25;93506.25;5087056;28;20227;-79
2023/10/02 05:01:24;;;;;;;9.93;9.13;;;;;;;13.83;63.30;93512.00;5082155;28;20205;-85
2023/10/02 05:03:37;;;;;;;11.10;10.20;;;;;;;13.79;63.33;93516.22;5080933;28;20224;-80
2023/10/02 05:06:04;;;;;;;13.87;10.63;;;;;;;13.80;63.44;93507.31;5079556;28;20185;-82
2023/10/02 05:08:40;;;;;;;11.83;11.03;;;;;;;13.89;63.37;93508.28;5081258;28;20228;-77
2023/10/02 05:11:26;;;;;;;13.53;11.27;;;;;;;13.95;63.88;93509.00;5076129;28;20180;-88
2023/10/02 05:16:33;;;;;;;10.63;9.83;;;;;;;13.90;62.78;93522.94;5098695;28;20179;-85
2023/10/02 05:19:01;;;;;;;14.03;10.27;;;;;;;13.86;62.91;93508.81;5083201;28;20242;-83
2023/10/02 05:24:15;;;;;;;11.67;10.50;;;;;;;14.00;62.63;93525.50;5089010;28;20289;-83
2023/10/02 05:26:44;;;;;;;10.53;9.50;;;;;;;14.02;62.03;93525.22;5079858;28;20311;-77
2023/10/02 05:29:17;;;;;;;10.53;9.47;;;;;;;14.00;62.30;93524.72;5078996;28;20229;-80
2023/10/02 05:31:47;;;;;;;10.43;9.60;;;;;;;14.10;61.29;93530.63;5089800;28;20203;-78
2023/10/02 05:34:25;;;;;;;12.80;10.67;;;;;;;14.26;62.22;93537.34;5088108;28;20235;-86
2023/10/02 05:39:34;;;;;;;15.17;10.63;;;;;;;14.07;61.39;93531.19;5086352;28;20274;-85
2023/10/02 05:42:06;;;;;;;10.27;9.33;;;;;;;14.18;61.80;93537.94;5086992;28;20192;-90
2023/10/02 05:44:36;;;;;;;10.77;9.83;;;;;;;14.25;60.13;93538.44;5087922;28;20280;-85
2023/10/02 05:47:05;;;;;;;11.93;10.80;;;;;;;14.08;60.16;93530.16;5070958;28;20197;-87
2023/10/02 05:49:32;;;;;;;10.47;9.50;;;;;;;14.15;60.80;93538.47;5084531;28;20217;-88
2023/10/02 05:52:00;;;;;;;11.00;9.93;;;;;;;14.24;59.97;93547.34;5075156;28;20211;-88
2023/10/02 05:54:29;;;;;;;10.73;9.90;;;;;;;14.12;60.28;93533.78;5069453;28;20221;-88
2023/10/02 05:57:08;;;;;;;11.87;10.57;;;;;;;14.21;60.94;93542.63;5087977;28;21146;-90
2023/10/02 05:59:47;;;;;;;15.00;11.17;;;;;;;14.17;60.55;93551.34;5087835;28;20221;-91
2023/10/02 06:02:31;;;;;;;11.90;10.67;;;;;;;14.34;60.75;93549.88;5084008;28;20162;-90
2023/10/02 06:05:07;;;;;;;11.40;10.33;;;;;;;14.38;60.16;93540.38;5079157;28;20209;-87
2023/10/02 06:07:45;;;;;;;11.70;10.47;;;;;;;14.26;59.33;93549.69;5084640;28;20180;-74
2023/10/02 06:10:26;;;;;;;10.70;9.70;;;;;;;14.42;59.66;93543.25;5070212;28;20218;-81
2023/10/02 06:13:05;;;;;;;11.40;10.40;;;;;;;14.46;59.37;93546.88;5100488;28;20256;-90
2023/10/02 06:15:43;;;;;;;10.50;9.50;;;;;;;14.32;59.00;93533.63;5079697;28;20237;-82
2023/10/02 06:18:09;;;;;;;13.93;10.40;;;;;;;14.44;58.88;93539.25;5073916;28;20820;-88
2023/10/02 06:20:35;;;;;;;10.83;10.03;;;;;;;14.44;58.54;93551.63;5094093;28;20181;-86
2023/10/02 06:23:19;;;;;;;11.00;10.00;;;;;;;14.45;58.15;93543.47;5091003;28;20223;-87
2023/10/02 06:25:46;;;;;;;11.23;10.23;;;;;;;14.52;57.99;93538.66;5085591;28;20229;-90
2023/10/02 06:28:27;;;;;;;10.90;10.00;;;;;;;14.49;58.39;93565.50;5090081;28;20227;-86
2023/10/02 06:30:54;;;;;;;13.40;11.50;;;;;;;14.58;58.98;93557.00;5092720;28;20212;-88
2023/10/02 06:33:21;;;;;;;10.40;9.43;;;;;;;14.58;59.27;93557.00;5091721;28;20236;-86
2023/10/02 06:35:56;;;;;;;13.80;10.90;;;;;;;14.67;59.04;93565.84;5091515;28;20200;-88
2023/10/02 06:38:25;;;;;;;11.67;10.23;;;;;;;14.52;59.78;93554.41;5091738;28;20208;-86
2023/10/02 06:40:57;;;;;;;11.30;10.40;;;;;;;14.52;59.45;93554.41;5073887;28;20204;-87
2023/10/02 06:43:29;;;;;;;12.27;10.27;;;;;;;14.61;59.50;93561.69;5088740;28;20221;-89
2023/10/02 06:46:10;;;;;;;11.33;10.23;;;;;;;14.68;59.07;93554.28;5089542;28;20208;-86
2023/10/02 06:48:39;;;;;;;13.23;11.13;;;;;;;14.86;58.73;93579.81;5085037;28;20221;-88
2023/10/02 06:51:04;;;;;;;10.97;10.27;;;;;;;14.97;58.90;93579.44;5085202;28;20189;-87
2023/10/02 06:53:31;;;;;;;10.90;10.00;;;;;;;15.08;59.01;93583.47;5090708;28;20235;-90
2023/10/02 06:55:59;;;;;;;11.67;10.73;;;;;;;15.04;58.32;93584.31;5073651;28;20248;-86
2023/10/02 06:58:26;;;;;;;11.20;10.10;;;;;;;15.04;58.76;93587.75;5090456;28;20221;-87
2023/10/02 07:01:01;;;;;;;11.93;10.83;;;;;;;15.16;57.69;93585.50;5067271;28;20196;-84
2023/10/02 07:03:27;;;;;;;11.10;10.30;;;;;;;15.25;58.12;93588.28;5087882;28;20212;-89
2023/10/02 07:05:52;;;;;;;11.07;10.00;;;;;;;15.23;57.86;93574.63;5079513;28;20180;-87
2023/10/02 07:08:18;;;;;;;10.97;9.93;;;;;;;15.30;57.65;93577.72;5089163;28;20227;-87
2023/10/02 07:10:44;;;;;;;11.20;10.20;;;;;;;15.23;58.01;93575.41;5100186;28;20176;-85
2023/10/02 07:13:20;;;;;;;14.70;10.17;;;;;;;15.30;58.60;93581.09;5093613;28;20227;-89
2023/10/02 07:15:55;;;;;;;10.97;9.87;;;;;;;15.27;59.59;93591.44;5091056;28;20212;-90
2023/10/02 07:18:21;;;;;;;11.23;10.13;;;;;;;15.28;58.52;93585.09;5084366;28;20223;-90
2023/10/02 07:20:52;;;;;;;11.43;10.17;;;;;;;15.10;59.89;93586.63;5090798;28;20214;-89
2023/10/02 07:23:22;;;;;;;10.83;9.83;;;;;;;14.66;60.93;93580.03;5091202;28;20228;-89
2023/10/02 07:25:51;;;;;;;10.93;9.87;;;;;;;14.50;62.11;93582.06;5083957;28;20246;-89
2023/10/02 07:28:20;;;;;;;12.70;11.50;;;;;;;14.33;63.06;93581.69;5089072;28;20224;-87
2023/10/02 07:30:46;;;;;;;12.40;11.20;;;;;;;14.36;63.45;93594.28;5087627;28;20187;-89
2023/10/02 07:33:12;;;;;;;11.30;10.43;;;;;;;14.33;63.87;93577.19;5089939;28;20232;-87
2023/10/02 07:35:37;;;;;;;10.57;9.67;;;;;;;14.30;63.96;93585.63;5070042;28;20201;-87
2023/10/02 07:38:08;;;;;;;10.87;10.17;;;;;;;14.42;64.01;93578.19;5090295;28;20217;-87
2023/10/02 07:40:49;;;;;;;11.83;10.73;;;;;;;14.57;64.35;93584.34;5098379;28;20180;-88
2023/10/02 07:43:16;;;;;;;11.47;10.30;;;;;;;14.74;62.70;93582.06;5090693;28;20311;-89
2023/10/02 07:45:42;;;;;;;11.40;10.33;;;;;;;14.85;62.53;93583.53;5089616;28;20244;-84
2023/10/02 07:48:19;;;;;;;10.90;9.90;;;;;;;14.90;62.48;93581.59;5090078;28;20221;-89
2023/10/02 07:50:45;;;;;;;14.97;11.00;;;;;;;15.29;60.38;93589.28;5090904;28;20188;-88
2023/10/02 07:53:12;;;;;;;11.17;10.23;;;;;;;15.69;60.42;93594.00;5090075;28;20227;-88
2023/10/02 07:55:46;;;;;;;12.13;11.03;;;;;;;15.79;59.66;93605.19;5090137;28;20233;-88
2023/10/02 07:58:19;;;;;;;10.90;9.83;;;;;;;15.63;57.38;93605.69;5089824;28;20211;-89
2023/10/02 08:00:49;;;;;;;10.93;9.87;;;;;;;15.72;57.25;93596.88;5079927;28;20198;-87
2023/10/02 08:03:42;;;;;;;16.40;9.97;;;;;;;15.70;58.32;93590.34;5088582;28;20224;-88
2023/10/02 08:11:56;;;;;;;11.40;10.30;;;;;;;15.37;60.53;93596.53;5089123;28;20249;-88
2023/10/02 08:14:38;;;;;;;11.63;9.93;;;;;;;15.57;59.80;93598.94;5074496;28;21030;-88
2023/10/02 08:17:27;;;;;;;13.87;10.07;;;;;;;15.91;58.68;93591.59;5057149;28;20257;-88
2023/10/02 08:19:55;;;;;;;20.30;9.83;;;;;;;16.04;58.63;93588.22;5067313;28;20233;-89
2023/10/02 08:22:23;;;;;;;10.97;9.93;;;;;;;16.10;58.42;93592.34;5069236;28;20207;-85
2023/10/02 08:24:49;;;;;;;11.73;10.63;;;;;;;16.14;58.76;93595.97;5059321;28;20213;-84
2023/10/02 08:27:14;;;;;;;12.60;10.93;;;;;;;16.16;58.87;93599.09;5058548;28;20226;-87
2023/10/02 08:29:41;;;;;;;11.17;10.17;;;;;;;16.11;58.82;93606.31;5066469;28;20287;-88
2023/10/02 08:32:07;;;;;;;11.87;10.80;;;;;;;16.08;58.86;93590.00;5069617;28;20253;-86
2023/10/02 08:34:32;;;;;;;15.53;10.77;;;;;;;16.39;57.53;93592.91;5065563;28;21041;-87
2023/10/02 08:37:12;;;;;;;11.83;10.67;;;;;;;16.40;58.09;93599.75;5069302;28;20181;-87
2023/10/02 08:39:41;;;;;;;11.73;10.10;;;;;;;16.40;57.74;93596.34;5062552;28;20220;-85
2023/10/02 08:42:09;;;;;;;14.03;10.53;;;;;;;16.40;58.75;93599.75;5069575;28;20194;-87
2023/10/02 08:44:38;;;;;;;12.80;10.30;;;;;;;16.38;57.40;93596.63;5067783;28;20240;-86
2023/10/02 08:47:24;;;;;;;12.00;10.77;;;;;;;16.51;57.45;93598.53;5069158;28;20206;-87
2023/10/02 08:50:01;;;;;;;11.27;10.23;;;;;;;16.35;57.50;93578.75;5078326;28;20231;-82
2023/10/02 08:52:38;;;;;;;11.17;10.27;;;;;;;16.63;57.97;93583.03;5094362;28;20184;-75
2023/10/02 08:56:05;;;;;;;14.37;10.53;;;;;;;16.82;56.66;93589.00;5094950;28;20216;-80
2023/10/02 08:58:18;;;;;;;11.87;10.67;;;;;;;16.48;56.86;93598.34;5064688;28;20225;-87
2023/10/02 09:03:41;;;;;;;11.63;10.53;;;;;;;16.51;57.52;93579.31;5088851;28;20241;-83
2023/10/02 09:06:28;;;;;;;11.27;10.37;;;;;;;16.56;58.03;93572.06;5090880;28;20208;-83
2023/10/02 09:11:41;;;;;;;11.13;10.13;;;;;;;16.72;57.20;93578.63;5088396;28;20183;-77
2023/10/02 09:16:45;;;;;;;12.60;11.43;;;;;;;16.97;56.84;93586.06;5081836;28;20206;-82
2023/10/02 09:19:30;;;;;;;12.33;11.03;;;;;;;16.97;56.01;93585.28;5088040;28;20247;-82
2023/10/02 09:22:10;;;;;;;12.47;10.50;;;;;;;17.07;56.64;93580.63;5087444;28;20190;-84
2023/10/02 09:24:36;;;;;;;11.33;10.33;;;;;;;17.01;55.05;93587.03;5086697;28;20215;-85
2023/10/02 09:27:28;;;;;;;12.40;10.40;;;;;;;17.00;55.32;93590.75;5088118;28;20220;-84
2023/10/02 09:30:15;;;;;;;12.70;11.40;;;;;;;17.02;55.36;93599.19;5091703;28;20235;-80
2023/10/02 09:32:47;;;;;;;12.40;11.17;;;;;;;17.13;56.10;93587.34;5081581;28;20260;-82
2023/10/02 09:35:32;;;;;;;13.17;11.03;;;;;;;17.04;54.81;93594.38;5097508;28;20211;-83
2023/10/02 09:38:03;;;;;;;16.43;10.93;;;;;;;17.14;54.71;93599.47;5086247;28;20216;-81
2023/10/02 09:40:53;;;;;;;12.80;10.63;;;;;;;17.12;54.81;93604.25;5087923;28;20189;-83
2023/10/02 09:43:19;;;;;;;12.10;11.03;;;;;;;17.23;54.70;93589.78;5096416;28;20339;-83
2023/10/02 09:45:47;;;;;;;12.67;11.40;;;;;;;17.20;54.57;93585.09;5102209;28;20248;-75
2023/10/02 09:51:07;;;;;;;11.80;10.73;;;;;;;17.08;54.33;93579.53;5095784;28;20244;-77
2023/10/02 09:53:41;;;;;;;12.23;10.90;;;;;;;17.40;54.01;93584.66;5096869;28;20251;-77
2023/10/02 09:56:17;;;;;;;14.67;11.27;;;;;;;17.26;53.55;93591.06;5091685;28;20181;-77
2023/10/02 09:58:53;;;;;;;13.27;11.97;;;;;;;17.35;52.66;93576.84;5090847;28;20239;-77
2023/10/02 10:03:51;;;;;;;11.50;10.60;;;;;;;17.52;52.08;93587.63;5090694;28;20238;-79
2023/10/02 10:06:19;;;;;;;11.33;10.00;;;;;;;17.61;51.98;93587.69;5091150;28;20191;-76
2023/10/02 10:09:18;;;;;;;11.17;10.00;;;;;;;17.77;51.75;93596.06;5091277;28;20251;-75
2023/10/02 10:14:43;;;;;;;13.47;10.53;;;;;;;17.83;50.69;93600.16;5090896;28;20232;-80
2023/10/02 10:17:15;;;;;;;14.47;11.60;;;;;;;17.98;50.84;93595.31;5092077;28;20173;-75
2023/10/02 10:20:18;;;;;;;12.70;11.40;;;;;;;18.06;49.31;93591.16;5088265;28;20256;-73
2023/10/02 10:22:50;;;;;;;16.20;10.87;;;;;;;18.06;49.43;93588.50;5089421;28;20222;-72
2023/10/02 10:28:00;;;;;;;12.77;11.33;;;;;;;17.99;48.80;93585.53;5086244;28;20185;-76
2023/10/02 10:30:28;;;;;;;14.63;11.47;;;;;;;17.89;47.92;93577.81;5085439;28;20245;-80
2023/10/02 10:35:55;;;;;;;12.87;11.63;;;;;;;18.08;48.21;93570.50;5079780;28;20199;-79
2023/10/02 10:38:29;;;;;;;14.00;10.77;;;;;;;18.30;47.62;93573.94;5075617;28;20236;-81
2023/10/02 10:41:26;;;;;;;11.07;10.03;;;;;;;18.14;46.93;93553.44;5083656;28;20253;-81
2023/10/02 10:44:06;;;;;;;12.13;10.93;;;;;;;18.13;47.39;93560.59;5091378;28;20221;-81
2023/10/02 10:46:32;;;;;;;11.87;10.67;;;;;;;18.25;47.29;93560.03;5092078;28;20226;-81
2023/10/02 10:49:07;;;;;;;16.57;10.77;;;;;;;18.12;47.51;93568.81;5087770;28;21443;-80
2023/10/02 10:51:37;;;;;;;15.43;11.30;;;;;;;18.18;46.88;93563.09;5088545;28;20204;-81
2023/10/02 10:54:18;;;;;;;14.30;10.73;;;;;;;18.24;45.49;93558.50;5090229;28;20212;-80
2023/10/02 10:56:55;;;;;;;12.17;11.17;;;;;;;18.33;45.33;93565.38;5091031;28;20206;-78
2023/10/02 10:59:32;;;;;;;11.83;10.80;;;;;;;18.40;45.08;93559.69;5090136;28;20218;-80
2023/10/02 11:02:13;;;;;;;12.90;11.23;;;;;;;18.57;43.66;93557.91;5089290;28;20206;-81
2023/10/02 11:04:49;;;;;;;12.67;11.40;;;;;;;18.42;43.81;93553.03;5083940;28;20233;-80
2023/10/02 11:07:25;;;;;;;12.20;11.03;;;;;;;18.62;43.03;93555.16;5081344;28;20186;-80
2023/10/02 11:10:19;;;;;;;13.07;11.30;;;;;;;18.49;42.59;93555.25;5085684;28;20335;-82
2023/10/02 11:12:56;;;;;;;12.50;11.40;;;;;;;18.60;43.29;93557.31;5090788;28;20189;-80
2023/10/02 11:18:20;;;;;;;14.13;11.53;;;;;;;18.73;43.25;93550.34;5080792;28;20219;-80
2023/10/02 11:20:49;;;;;;;11.40;10.40;;;;;;;18.81;44.75;93544.31;5089382;28;20185;-80
2023/10/02 11:23:45;;;;;;;13.60;11.10;;;;;;;18.98;44.76;93544.38;5092725;28;20221;-80
2023/10/02 11:26:12;;;;;;;12.67;11.43;;;;;;;18.91;43.55;93541.41;5088709;28;20257;-78
2023/10/02 11:28:39;;;;;;;12.53;11.43;;;;;;;18.87;44.22;93551.03;5094358;28;20233;-80
2023/10/02 11:31:30;;;;;;;13.27;11.97;;;;;;;18.99;44.83;93543.28;5089274;28;20217;-81
2023/10/02 11:34:03;;;;;;;12.90;10.70;;;;;;;18.99;43.89;93543.28;5080170;28;20234;-81
2023/10/02 11:36:33;;;;;;;12.93;11.27;;;;;;;19.08;44.52;93536.16;5070121;28;20190;-80
2023/10/02 11:39:09;;;;;;;12.70;11.50;;;;;;;18.86;44.21;93536.25;5086753;28;20263;-80
2023/10/02 11:41:38;;;;;;;13.20;11.90;;;;;;;18.80;45.48;93526.91;5080918;28;20187;-80
2023/10/02 11:44:06;;;;;;;12.73;11.60;;;;;;;19.09;46.38;93522.63;5087332;28;20290;-80
2023/10/02 11:46:32;;;;;;;11.17;10.10;;;;;;;18.93;45.15;93523.34;5090013;28;20234;-82
2023/10/02 11:48:58;;;;;;;14.23;11.97;;;;;;;19.21;46.61;93523.91;5077622;28;20227;-81
2023/10/02 11:51:28;;;;;;;12.80;11.47;;;;;;;19.06;46.66;93531.19;5055380;28;20217;-78
2023/10/02 11:54:08;;;;;;;13.13;11.60;;;;;;;19.08;46.87;93534.28;5085284;28;20245;-80
2023/10/02 11:56:34;;;;;;;12.90;11.43;;;;;;;19.10;46.77;93533.97;5082082;28;20178;-80
2023/10/02 11:59:00;;;;;;;12.07;11.07;;;;;;;18.76;47.27;93531.22;5071268;28;20251;-82
2023/10/02 12:01:26;;;;;;;17.47;11.73;;;;;;;19.27;48.09;93528.72;5082790;28;20183;-86
2023/10/02 12:03:56;;;;;;;14.13;10.73;;;;;;;19.45;46.53;93527.69;5088503;28;20221;-89
2023/10/02 12:06:26;;;;;;;12.27;10.80;;;;;;;19.58;46.07;93539.25;5080515;28;20210;-89
2023/10/02 12:08:54;;;;;;;12.43;11.23;;;;;;;19.67;46.71;93516.19;5076358;28;20276;-86
2023/10/02 12:11:20;;;;;;;12.90;11.67;;;;;;;19.38;46.40;93519.41;5086747;28;20332;-87
2023/10/02 12:13:46;;;;;;;13.03;11.73;;;;;;;19.58;46.48;93516.16;5097522;28;20213;-89
2023/10/02 12:16:12;;;;;;;12.47;11.37;;;;;;;19.17;47.54;93527.13;5089262;28;20208;-91
2023/10/02 12:18:38;;;;;;;13.57;12.20;;;;;;;19.08;48.14;93525.59;5089348;28;20230;-88
2023/10/02 12:21:14;;;;;;;12.87;11.77;;;;;;;19.12;48.73;93522.00;5081075;28;20198;-90
2023/10/02 12:23:43;;;;;;;13.70;11.93;;;;;;;19.10;48.83;93512.81;5092556;28;20234;-86
2023/10/02 12:26:13;;;;;;;13.63;11.77;;;;;;;19.15;48.22;93521.41;5095361;28;20249;-91
2023/10/02 12:28:38;;;;;;;14.13;12.73;;;;;;;19.31;47.99;93508.53;5090728;28;20254;-89
2023/10/02 12:31:14;;;;;;;15.17;12.53;;;;;;;19.56;46.76;93509.63;5099982;28;20176;-89
2023/10/02 12:33:44;;;;;;;12.60;11.37;;;;;;;19.59;47.52;93509.78;5085209;28;20275;-89
2023/10/02 12:36:10;;;;;;;13.30;11.93;;;;;;;19.75;46.42;93508.22;5089412;28;20198;-88
2023/10/02 12:38:36;;;;;;;13.83;12.40;;;;;;;19.51;46.47;93517.72;5089077;28;20218;-85
2023/10/02 12:41:01;;;;;;;13.90;12.37;;;;;;;19.51;46.99;93492.03;5093928;28;20182;-87
2023/10/02 12:43:26;;;;;;;13.67;12.43;;;;;;;19.36;47.17;93510.25;5081948;28;20234;-84